createdAt,value
2023-04-22T00:01:27.992Z,9.44
2023-04-22T00:04:14.268Z,9.36
2023-04-22T00:07:00.289Z,8.99
2023-04-22T00:09:46.124Z,8.74
2023-04-22T00:12:32.048Z,9.30
2023-04-22T00:15:17.985Z,9.10
2023-04-22T00:18:04.013Z,8.91
2023-04-22T00:20:49.953Z,9.03
2023-04-22T00:23:35.731Z,8.75
2023-04-22T00:26:21.589Z,8.56
2023-04-22T00:29:07.350Z,8.28
2023-04-22T00:31:53.279Z,8.36
2023-04-22T00:34:39.192Z,8.52
2023-04-22T00:37:25.134Z,8.20
2023-04-22T00:40:10.960Z,8.18
2023-04-22T00:42:56.815Z,7.92
2023-04-22T00:45:42.705Z,8.02
2023-04-22T00:48:28.970Z,7.85
2023-04-22T00:51:14.955Z,7.23
2023-04-22T00:54:00.874Z,7.69
2023-04-22T00:56:46.731Z,7.20
2023-04-22T00:59:32.675Z,7.21
2023-04-22T01:02:18.634Z,7.31
2023-04-22T01:05:06.554Z,6.53
2023-04-22T01:07:52.432Z,7.02
2023-04-22T01:10:38.366Z,6.56
2023-04-22T01:13:24.248Z,7.01
2023-04-22T01:16:10.248Z,6.56
2023-04-22T01:18:56.377Z,7.18
2023-04-22T01:21:42.161Z,7.09
2023-04-22T01:24:28.004Z,7.63
2023-04-22T01:27:13.916Z,7.96
2023-04-22T01:29:59.873Z,8.16
2023-04-22T01:32:45.933Z,9.03
2023-04-22T01:35:31.722Z,9.32
2023-04-22T01:38:17.698Z,9.46
2023-04-22T01:41:03.630Z,9.25
2023-04-22T01:43:49.486Z,9.03
2023-04-22T01:46:35.476Z,8.43
2023-04-22T01:49:21.576Z,8.96
2023-04-22T01:52:07.384Z,8.45
2023-04-22T01:54:53.354Z,8.08
2023-04-22T01:57:39.166Z,8.00
2023-04-22T02:00:25.004Z,8.34
2023-04-22T02:03:11.077Z,8.42
2023-04-22T02:05:57.258Z,8.57
2023-04-22T02:08:43.158Z,8.47
2023-04-22T02:11:29.112Z,8.63
2023-04-22T02:14:14.935Z,9.01
2023-04-22T02:17:00.811Z,9.88
2023-04-22T02:19:46.557Z,10.27
2023-04-22T02:22:32.428Z,9.24
2023-04-22T02:25:18.287Z,9.21
2023-04-22T02:28:04.178Z,9.37
2023-04-22T02:30:50.014Z,9.12
2023-04-22T02:33:35.761Z,8.56
2023-04-22T02:36:21.609Z,10.03
2023-04-22T02:39:07.581Z,10.71
2023-04-22T02:41:53.673Z,11.59
2023-04-22T02:44:39.399Z,9.98
2023-04-22T02:47:25.167Z,10.09
2023-04-22T02:50:11.238Z,10.81
2023-04-22T02:52:57.074Z,10.42
2023-04-22T02:55:42.929Z,11.55
2023-04-22T02:58:28.808Z,11.25
2023-04-22T03:01:14.686Z,11.20
2023-04-22T03:04:00.812Z,10.13
2023-04-22T03:06:46.932Z,10.60
2023-04-22T03:09:32.691Z,10.73
2023-04-22T03:12:18.445Z,10.23
2023-04-22T03:15:04.582Z,10.47
2023-04-22T03:17:50.445Z,10.61
2023-04-22T03:20:36.377Z,10.17
2023-04-22T03:23:22.114Z,8.73
2023-04-22T03:26:07.939Z,8.16
2023-04-22T03:28:53.899Z,6.76
2023-04-22T03:31:39.723Z,6.14
2023-04-22T03:34:25.713Z,6.01
2023-04-22T03:37:11.687Z,5.74
2023-04-22T03:39:57.461Z,5.39
2023-04-22T03:42:43.311Z,5.38
2023-04-22T03:45:29.122Z,5.56
2023-04-22T03:48:14.973Z,5.33
2023-04-22T03:51:00.929Z,5.82
2023-04-22T03:53:46.790Z,5.63
2023-04-22T03:56:32.751Z,5.97
2023-04-22T03:59:18.506Z,6.04
2023-04-22T04:02:04.326Z,5.91
2023-04-22T04:04:50.537Z,5.77
2023-04-22T04:07:36.613Z,6.44
2023-04-22T04:10:22.404Z,6.67
2023-04-22T04:13:08.415Z,6.44
2023-04-22T04:15:54.302Z,6.42
2023-04-22T04:18:42.086Z,6.52
2023-04-22T04:21:28.010Z,6.41
2023-04-22T04:24:13.862Z,6.16
2023-04-22T04:26:59.671Z,5.95
2023-04-22T04:29:45.400Z,6.23
2023-04-22T04:32:31.455Z,5.76
2023-04-22T04:35:17.462Z,5.91
2023-04-22T04:38:03.181Z,5.67
2023-04-22T04:40:49.024Z,4.95
2023-04-22T04:43:34.892Z,5.25
2023-04-22T04:46:20.751Z,5.21
2023-04-22T04:49:06.764Z,5.10
2023-04-22T04:51:52.457Z,4.90
2023-04-22T04:54:38.279Z,5.12
2023-04-22T04:57:24.239Z,4.97
2023-04-22T05:00:10.052Z,7.85
2023-04-22T05:02:56.085Z,14.66
2023-04-22T05:05:42.322Z,12.74
2023-04-22T05:08:28.127Z,10.11
2023-04-22T05:11:13.947Z,6.29
2023-04-22T05:13:59.706Z,6.50
2023-04-22T05:16:45.613Z,6.07
2023-04-22T05:19:31.417Z,5.21
2023-04-22T05:22:17.244Z,4.51
2023-04-22T05:25:03.111Z,4.34
2023-04-22T05:27:48.889Z,4.12
2023-04-22T05:30:34.812Z,5.07
2023-04-22T05:33:20.605Z,7.19
2023-04-22T05:36:06.525Z,4.26
2023-04-22T05:38:52.366Z,4.07
2023-04-22T05:41:38.240Z,4.19
2023-04-22T05:44:24.058Z,4.06
2023-04-22T05:47:09.971Z,3.96
2023-04-22T05:49:55.905Z,4.03
2023-04-22T05:52:41.807Z,4.07
2023-04-22T05:55:27.712Z,4.08
2023-04-22T05:58:13.517Z,3.69
2023-04-22T06:00:59.406Z,3.58
2023-04-22T06:03:45.471Z,3.78
2023-04-22T06:06:31.808Z,3.66
2023-04-22T06:09:17.821Z,3.83
2023-04-22T06:12:03.706Z,11.12
2023-04-22T06:14:49.651Z,19.51
2023-04-22T06:17:35.578Z,23.71
2023-04-22T06:20:21.416Z,19.01
2023-04-22T06:23:07.323Z,4.77
2023-04-22T06:25:53.148Z,3.48
2023-04-22T06:28:39.068Z,3.76
2023-04-22T06:31:25.011Z,3.80
2023-04-22T06:34:10.744Z,3.68
2023-04-22T06:36:56.509Z,3.66
2023-04-22T06:39:42.645Z,3.43
2023-04-22T06:42:29.193Z,3.62
2023-04-22T06:45:15.170Z,3.36
2023-04-22T06:48:01.091Z,3.45
2023-04-22T06:50:47.050Z,3.28
2023-04-22T06:53:33.119Z,3.30
2023-04-22T06:56:19.065Z,3.26
2023-04-22T06:59:05.034Z,3.02
2023-04-22T07:01:50.798Z,2.97
2023-04-22T07:04:36.649Z,2.76
2023-04-22T07:07:22.634Z,2.83
2023-04-22T07:10:08.396Z,2.81
2023-04-22T07:12:54.272Z,2.75
2023-04-22T07:15:40.139Z,2.72
2023-04-22T07:18:25.930Z,2.77
2023-04-22T07:21:11.831Z,2.65
2023-04-22T07:23:57.720Z,2.53
2023-04-22T07:26:43.688Z,2.54
2023-04-22T07:29:29.646Z,2.79
2023-04-22T07:32:15.506Z,2.74
2023-04-22T07:35:01.374Z,12.81
2023-04-22T07:37:47.190Z,39.62
2023-04-22T07:40:33.064Z,110.46
2023-04-22T07:43:19.009Z,71.06
2023-04-22T07:46:04.897Z,27.00
2023-04-22T07:48:50.812Z,24.75
2023-04-22T07:51:36.840Z,25.96
2023-04-22T07:54:22.616Z,25.51
2023-04-22T07:57:08.568Z,24.37
2023-04-22T07:59:54.558Z,22.87
2023-04-22T08:02:40.429Z,18.81
2023-04-22T08:05:26.369Z,12.39
2023-04-22T08:08:12.202Z,9.38
2023-04-22T08:10:58.127Z,6.19
2023-04-22T08:13:44.046Z,3.68
2023-04-22T08:16:29.865Z,3.68
2023-04-22T08:19:15.756Z,3.12
2023-04-22T08:22:01.529Z,3.10
2023-04-22T08:24:47.409Z,2.87
2023-04-22T08:27:35.367Z,3.08
2023-04-22T08:30:21.382Z,3.61
2023-04-22T08:33:07.541Z,13.81
2023-04-22T08:35:53.505Z,18.72
2023-04-22T08:38:39.369Z,16.92
2023-04-22T08:41:25.275Z,16.75
2023-04-22T08:44:11.107Z,18.70
2023-04-22T08:46:57.133Z,20.41
2023-04-22T08:49:43.361Z,21.52
2023-04-22T08:52:29.249Z,22.34
2023-04-22T08:55:15.155Z,21.76
2023-04-22T08:58:01.252Z,22.62
2023-04-22T09:00:47.034Z,22.48
2023-04-22T09:03:32.902Z,22.26
2023-04-22T09:06:18.988Z,17.29
2023-04-22T09:09:04.921Z,10.28
2023-04-22T09:11:50.826Z,10.27
2023-04-22T09:14:36.852Z,9.89
2023-04-22T09:17:22.830Z,9.25
2023-04-22T09:20:17.189Z,8.69
2023-04-22T09:23:03.103Z,8.22
2023-04-22T09:25:48.893Z,7.07
2023-04-22T09:28:34.826Z,7.15
2023-04-22T09:31:20.982Z,6.78
2023-04-22T09:34:06.946Z,7.03
2023-04-22T09:36:52.852Z,6.89
2023-04-22T09:39:38.999Z,7.05
2023-04-22T09:42:25.021Z,7.17
2023-04-22T09:45:10.866Z,7.55
2023-04-22T09:47:56.900Z,7.32
2023-04-22T09:50:43.201Z,6.29
2023-04-22T09:53:28.956Z,6.06
2023-04-22T09:56:14.696Z,6.24
2023-04-22T09:59:00.642Z,5.91
2023-04-22T10:01:46.697Z,4.82
2023-04-22T10:04:33.181Z,4.67
2023-04-22T10:07:19.157Z,4.86
2023-04-22T10:10:04.879Z,5.10
2023-04-22T10:12:50.720Z,4.96
2023-04-22T10:15:36.688Z,4.44
2023-04-22T10:18:22.383Z,4.59
2023-04-22T10:21:08.335Z,4.71
2023-04-22T10:23:54.107Z,4.40
2023-04-22T10:26:39.900Z,4.65
2023-04-22T10:29:25.841Z,5.03
2023-04-22T10:32:13.562Z,5.29
2023-04-22T10:34:59.360Z,5.02
2023-04-22T10:37:45.279Z,4.97
2023-04-22T10:40:31.470Z,4.68
2023-04-22T10:43:17.391Z,4.84
2023-04-22T10:46:03.134Z,4.86
2023-04-22T10:48:48.972Z,4.35
2023-04-22T10:51:34.921Z,4.76
2023-04-22T10:54:20.628Z,4.82
2023-04-22T10:57:06.716Z,4.89
2023-04-22T10:59:52.988Z,4.77
2023-04-22T11:02:38.933Z,4.42
2023-04-22T11:05:26.244Z,4.62
2023-04-22T11:08:12.626Z,4.39
2023-04-22T11:10:58.437Z,4.75
2023-04-22T11:13:44.507Z,4.08
2023-04-22T11:16:30.333Z,4.24
2023-04-22T11:19:16.250Z,4.35
2023-04-22T11:22:02.239Z,4.51
2023-04-22T11:24:48.027Z,4.19
2023-04-22T11:27:33.896Z,4.14
2023-04-22T11:30:19.770Z,3.56
2023-04-22T11:33:05.605Z,3.95
2023-04-22T11:35:51.441Z,4.24
2023-04-22T11:38:37.198Z,4.21
2023-04-22T11:41:23.129Z,3.95
2023-04-22T11:44:09.026Z,4.58
2023-04-22T11:46:54.888Z,4.83
2023-04-22T11:49:40.959Z,5.07
2023-04-22T11:52:27.303Z,5.25
2023-04-22T11:55:13.190Z,5.30
2023-04-22T11:57:59.082Z,5.08
2023-04-22T12:00:44.845Z,5.24
2023-04-22T12:03:31.230Z,5.32
2023-04-22T12:06:17.833Z,4.77
2023-04-22T12:09:03.712Z,4.11
2023-04-22T12:11:49.561Z,3.86
2023-04-22T12:14:35.498Z,4.53
2023-04-22T12:17:21.394Z,4.04
2023-04-22T12:20:07.313Z,4.03
2023-04-22T12:22:53.108Z,3.98
2023-04-22T12:25:39.110Z,3.81
2023-04-22T12:28:25.008Z,3.59
2023-04-22T12:31:10.796Z,3.52
2023-04-22T12:33:56.844Z,4.02
2023-04-22T12:36:43.038Z,4.61
2023-04-22T12:39:29.115Z,5.00
2023-04-22T12:42:15.311Z,5.31
2023-04-22T12:45:01.522Z,4.99
2023-04-22T12:47:47.440Z,4.52
2023-04-22T12:50:33.372Z,4.13
2023-04-22T12:53:19.150Z,4.16
2023-04-22T12:56:05.031Z,3.99
2023-04-22T12:58:50.698Z,3.85
2023-04-22T13:01:36.665Z,3.68
2023-04-22T13:04:22.795Z,3.78
2023-04-22T13:07:08.832Z,3.56
2023-04-22T13:09:54.890Z,3.38
2023-04-22T13:12:40.950Z,3.35
2023-04-22T13:15:26.798Z,3.29
2023-04-22T13:18:12.647Z,3.30
2023-04-22T13:20:58.390Z,3.06
2023-04-22T13:23:44.246Z,3.07
2023-04-22T13:26:30.325Z,3.20
2023-04-22T13:29:16.186Z,3.24
2023-04-22T13:32:02.162Z,2.96
2023-04-22T13:34:48.049Z,2.94
2023-04-22T13:37:33.924Z,3.00
2023-04-22T13:40:19.856Z,3.08
2023-04-22T13:43:05.525Z,2.89
2023-04-22T13:45:51.502Z,3.12
2023-04-22T13:48:37.533Z,3.25
2023-04-22T13:51:23.396Z,3.10
2023-04-22T13:54:09.472Z,3.08
2023-04-22T13:56:55.245Z,3.08
2023-04-22T13:59:41.309Z,2.91
2023-04-22T14:02:27.748Z,3.01
2023-04-22T14:05:13.860Z,2.88
2023-04-22T14:08:01.928Z,2.84
2023-04-22T14:10:47.903Z,2.88
2023-04-22T14:13:33.712Z,2.52
2023-04-22T14:16:19.578Z,2.84
2023-04-22T14:19:05.513Z,3.04
2023-04-22T14:21:51.312Z,2.98
2023-04-22T14:24:37.293Z,2.87
2023-04-22T14:27:23.197Z,2.98
2023-04-22T14:30:09.109Z,2.76
2023-04-22T14:32:55.143Z,2.87
2023-04-22T14:35:40.970Z,2.99
2023-04-22T14:38:26.899Z,2.85
2023-04-22T14:41:12.816Z,3.07
2023-04-22T14:43:59.778Z,2.84
2023-04-22T14:46:45.673Z,2.95
2023-04-22T14:49:33.200Z,2.62
2023-04-22T14:52:19.378Z,2.61
2023-04-22T14:55:15.423Z,2.56
2023-04-22T14:58:05.557Z,2.46
2023-04-22T15:00:51.311Z,2.46
2023-04-22T15:03:37.314Z,2.72
2023-04-22T15:06:23.250Z,2.70
2023-04-22T15:09:09.207Z,2.69
2023-04-22T15:11:55.189Z,3.01
2023-04-22T15:14:40.906Z,3.08
2023-04-22T15:17:26.879Z,2.87
2023-04-22T15:20:12.722Z,2.62
2023-04-22T15:22:58.605Z,2.82
2023-04-22T15:25:44.552Z,2.83
2023-04-22T15:28:30.372Z,3.01
2023-04-22T15:31:16.370Z,2.84
2023-04-22T15:34:02.141Z,2.71
2023-04-22T15:36:47.995Z,2.85
2023-04-22T15:39:33.900Z,2.98
2023-04-22T15:42:19.560Z,2.96
2023-04-22T15:45:05.579Z,3.08
2023-04-22T15:47:51.385Z,2.88
2023-04-22T15:50:39.883Z,2.63
2023-04-22T15:53:26.293Z,2.66
2023-04-22T15:56:12.145Z,2.65
2023-04-22T15:58:58.028Z,2.60
2023-04-22T16:01:46.040Z,2.52
2023-04-22T16:04:32.398Z,2.66
2023-04-22T16:07:18.633Z,2.62
2023-04-22T16:10:04.503Z,2.73
2023-04-22T16:12:50.378Z,2.77
2023-04-22T16:15:36.326Z,2.76
2023-04-22T16:18:22.542Z,2.61
2023-04-22T16:21:08.368Z,2.72
2023-04-22T16:23:54.305Z,2.62
2023-04-22T16:26:40.221Z,2.54
2023-04-22T16:29:26.080Z,2.55
2023-04-22T16:32:12.051Z,2.70
2023-04-22T16:34:57.790Z,2.71
2023-04-22T16:37:43.834Z,2.67
2023-04-22T16:40:29.761Z,2.76
2023-04-22T16:43:15.591Z,2.88
2023-04-22T16:46:01.520Z,2.57
2023-04-22T16:48:47.319Z,2.83
2023-04-22T16:51:33.263Z,2.62
2023-04-22T16:54:19.149Z,2.96
2023-04-22T16:57:05.142Z,2.69
2023-04-22T16:59:51.112Z,2.91
2023-04-22T17:02:37.236Z,2.80
2023-04-22T17:05:23.450Z,3.19
2023-04-22T17:08:09.278Z,2.98
2023-04-22T17:10:55.207Z,3.44
2023-04-22T17:13:40.993Z,3.18
2023-04-22T17:16:27.165Z,3.40
2023-04-22T17:19:12.952Z,3.37
2023-04-22T17:21:58.828Z,3.37
2023-04-22T17:24:44.639Z,3.47
2023-04-22T17:27:30.496Z,3.54
2023-04-22T17:30:16.420Z,3.58
2023-04-22T17:33:02.234Z,3.70
2023-04-22T17:35:48.051Z,3.33
2023-04-22T17:38:33.920Z,3.59
2023-04-22T17:41:19.670Z,3.54
2023-04-22T17:44:05.535Z,3.80
2023-04-22T17:46:51.414Z,3.85
2023-04-22T17:49:37.612Z,3.98
2023-04-22T17:52:23.632Z,4.30
2023-04-22T17:55:09.418Z,4.38
2023-04-22T17:57:55.376Z,4.18
2023-04-22T18:00:41.359Z,4.51
2023-04-22T18:03:27.253Z,4.24
2023-04-22T18:06:13.554Z,4.52
2023-04-22T18:08:59.521Z,4.85
2023-04-22T18:11:45.419Z,4.81
2023-04-22T18:14:31.392Z,5.17
2023-04-22T18:17:17.197Z,5.38
2023-04-22T18:20:16.759Z,5.03
2023-04-22T18:23:04.375Z,5.18
2023-04-22T18:25:50.269Z,5.07
2023-04-22T18:28:36.151Z,4.91
2023-04-22T18:31:22.017Z,4.95
2023-04-22T18:34:07.803Z,4.87
2023-04-22T18:36:53.788Z,4.72
2023-04-22T18:39:39.718Z,4.67
2023-04-22T18:42:25.923Z,4.86
2023-04-22T18:45:11.861Z,4.71
2023-04-22T18:47:57.742Z,4.97
2023-04-22T18:50:43.684Z,5.16
2023-04-22T18:53:29.538Z,6.44
2023-04-22T18:56:15.360Z,8.56
2023-04-22T18:59:01.193Z,6.39
2023-04-22T19:01:47.007Z,8.01
2023-04-22T19:04:32.948Z,7.33
2023-04-22T19:07:18.904Z,7.68
2023-04-22T19:10:04.828Z,7.42
2023-04-22T19:12:50.816Z,6.89
2023-04-22T19:15:36.656Z,6.68
2023-04-22T19:18:22.677Z,6.71
2023-04-22T19:21:08.545Z,6.79
2023-04-22T19:23:54.354Z,6.68
2023-04-22T19:26:40.321Z,7.24
2023-04-22T19:29:26.253Z,6.70
2023-04-22T19:32:12.165Z,6.65
2023-04-22T19:34:58.154Z,6.59
2023-04-22T19:37:43.964Z,6.89
2023-04-22T19:40:29.729Z,6.83
2023-04-22T19:43:17.746Z,6.83
2023-04-22T19:46:03.470Z,7.13
2023-04-22T19:48:49.575Z,10.65
2023-04-22T19:51:35.388Z,7.51
2023-04-22T19:54:21.218Z,9.56
2023-04-22T19:57:07.229Z,8.08
2023-04-22T19:59:53.975Z,8.06
2023-04-22T20:02:39.952Z,7.40
2023-04-22T20:05:26.299Z,7.50
2023-04-22T20:08:12.074Z,8.79
2023-04-22T20:10:57.947Z,7.91
2023-04-22T20:13:44.505Z,8.27
2023-04-22T20:16:31.729Z,7.86
2023-04-22T20:19:17.670Z,8.03
2023-04-22T20:22:03.485Z,7.89
2023-04-22T20:24:49.277Z,7.80
2023-04-22T20:27:35.240Z,8.10
2023-04-22T20:30:21.110Z,7.50
2023-04-22T20:33:07.036Z,7.82
2023-04-22T20:35:52.990Z,7.67
2023-04-22T20:38:38.697Z,7.48
2023-04-22T20:41:24.771Z,8.24
2023-04-22T20:44:10.636Z,7.68
2023-04-22T20:46:56.494Z,7.73
2023-04-22T20:49:42.455Z,6.63
2023-04-22T20:52:28.292Z,6.74
2023-04-22T20:55:14.174Z,6.38
2023-04-22T20:58:00.118Z,6.34
2023-04-22T21:00:45.983Z,6.24
2023-04-22T21:03:32.083Z,5.67
2023-04-22T21:06:18.218Z,5.83
2023-04-22T21:09:04.166Z,5.41
2023-04-22T21:11:50.144Z,5.22
2023-04-22T21:14:35.911Z,5.43
2023-04-22T21:17:21.842Z,5.23
2023-04-22T21:20:07.802Z,5.00
2023-04-22T21:22:53.637Z,4.79
2023-04-22T21:25:39.545Z,4.81
2023-04-22T21:28:25.291Z,4.89
2023-04-22T21:31:11.164Z,4.68
2023-04-22T21:33:57.038Z,4.35
2023-04-22T21:36:42.910Z,4.36
2023-04-22T21:39:28.893Z,4.31
2023-04-22T21:42:14.722Z,4.19
2023-04-22T21:45:00.527Z,4.00
2023-04-22T21:47:46.459Z,4.20
2023-04-22T21:50:32.245Z,4.11
2023-04-22T21:53:18.224Z,4.04
2023-04-22T21:56:04.173Z,4.07
2023-04-22T21:58:51.998Z,4.16
2023-04-22T22:01:38.058Z,4.17
2023-04-22T22:04:24.027Z,3.94
2023-04-22T22:07:10.027Z,3.85
2023-04-22T22:09:56.034Z,4.31
2023-04-22T22:12:41.675Z,4.48
2023-04-22T22:15:27.503Z,4.62
2023-04-22T22:18:13.445Z,4.52
2023-04-22T22:20:59.334Z,4.51
2023-04-22T22:23:45.241Z,4.62
2023-04-22T22:26:31.159Z,4.76
2023-04-22T22:29:17.076Z,4.68
2023-04-22T22:32:03.163Z,4.52
2023-04-22T22:34:49.019Z,4.44
2023-04-22T22:37:35.003Z,4.56
2023-04-22T22:40:20.958Z,4.44
2023-04-22T22:43:06.808Z,4.42
2023-04-22T22:45:52.737Z,4.17
2023-04-22T22:48:38.557Z,4.68
2023-04-22T22:51:24.531Z,4.58
2023-04-22T22:54:10.480Z,4.91
2023-04-22T22:56:56.359Z,5.36
2023-04-22T22:59:42.110Z,5.35
2023-04-22T23:05:56.350Z,6.09
2023-04-22T23:08:42.131Z,6.19
2023-04-22T23:11:27.955Z,6.51
2023-04-22T23:14:13.873Z,6.72
2023-04-22T23:16:59.777Z,6.36
2023-04-22T23:19:45.810Z,5.99
2023-04-22T23:22:31.790Z,6.32
2023-04-22T23:25:17.615Z,6.47
2023-04-22T23:28:03.666Z,5.73
2023-04-22T23:30:49.711Z,6.62
2023-04-22T23:33:35.543Z,6.16
2023-04-22T23:36:21.407Z,5.98
2023-04-22T23:39:07.216Z,6.03
2023-04-22T23:41:53.081Z,6.03
2023-04-22T23:44:39.063Z,6.27
2023-04-22T23:47:25.729Z,5.85
2023-04-22T23:50:11.834Z,6.05
2023-04-22T23:52:57.550Z,5.91
2023-04-22T23:55:43.569Z,5.85
2023-04-22T23:58:29.498Z,5.83
